Time;durP1;ratioP1;P1;durP2;ratioP2;P2;SDS_P1;SDS_P2;PMS_P1;PMS_P2;Temp;Humidity;BMP_temperature;BMP_pressure;BME280_temperature;BME280_humidity;BME280_pressure;Samples;Min_cycle;Max_cycle;Signal;HPM_P1;HPM_P2
2021/12/23 14:31:57;;;;;;;21.62;11.25;;;;;;;-12.17;77.67;100329.69;1783077;78;23113;-49
2021/12/23 14:34:27;;;;;;;27.85;14.33;;;;;;;-12.16;77.70;100331.05;1727419;80;21474;-49
2021/12/23 14:36:58;;;;;;;28.02;15.72;;;;;;;-11.90;77.43;100318.13;1739876;80;21711;-49
2021/12/23 14:39:28;;;;;;;25.85;12.90;;;;;;;-11.71;76.88;100314.58;1742610;80;20959;-52
2021/12/23 14:41:59;;;;;;;28.62;13.70;;;;;;;-11.53;76.38;100314.72;1737862;80;21424;-52
2021/12/23 14:44:29;;;;;;;21.97;12.20;;;;;;;-11.42;75.66;100306.45;1733917;80;21046;-51
2021/12/23 14:47:13;;;;;;;25.92;12.50;;;;;;;-11.34;75.30;100306.46;1743558;80;21435;-50
2021/12/23 14:49:59;;;;;;;25.68;14.00;;;;;;;-11.21;75.24;100306.75;1735435;80;22096;-52
2021/12/23 14:52:33;;;;;;;28.62;13.95;;;;;;;-11.08;74.94;100302.81;1736772;80;21427;-52
2021/12/23 14:55:18;;;;;;;25.70;13.65;;;;;;;-10.90;74.67;100302.08;1732111;80;21545;-53
2021/12/23 14:57:58;;;;;;;22.22;12.82;;;;;;;-10.75;74.36;100300.34;1740076;80;21625;-52
2021/12/23 15:00:37;;;;;;;30.20;15.65;;;;;;;-10.64;73.41;100296.70;1740926;80;21481;-51
2021/12/23 15:03:14;;;;;;;32.85;18.25;;;;;;;-10.59;73.23;100299.47;1728489;80;22135;-49
2021/12/23 15:05:42;;;;;;;30.80;16.97;;;;;;;-10.66;72.62;100291.04;1743906;80;21546;-50
2021/12/23 15:08:25;;;;;;;30.48;15.43;;;;;;;-10.75;72.51;100289.28;1745798;80;21562;-48
2021/12/23 15:10:54;;;;;;;28.10;13.98;;;;;;;-10.83;72.58;100284.70;1735178;80;21496;-51
2021/12/23 15:13:39;;;;;;;27.25;15.48;;;;;;;-10.98;72.28;100280.05;1744077;80;21520;-49
2021/12/23 15:16:14;;;;;;;34.33;17.80;;;;;;;-11.05;72.47;100280.53;1733191;81;21510;-49
2021/12/23 15:21:41;;;;;;;32.15;18.80;;;;;;;-11.24;72.95;100273.19;1738402;80;20958;-49
2021/12/23 15:24:24;;;;;;;29.75;17.95;;;;;;;-11.21;73.10;100273.34;1698709;82;21541;-50
2021/12/23 15:26:57;;;;;;;25.75;15.38;;;;;;;-11.18;72.99;100273.52;1700358;83;21561;-48
2021/12/23 15:29:31;;;;;;;32.50;17.82;;;;;;;-11.13;73.06;100272.88;1690274;83;21650;-49
2021/12/23 15:32:10;;;;;;;31.37;18.87;;;;;;;-11.13;72.72;100268.70;1676087;83;21567;-49
2021/12/23 15:34:37;;;;;;;24.35;15.48;;;;;;;-11.21;72.71;100272.47;1673241;83;21434;-48
2021/12/23 15:37:04;;;;;;;42.55;21.48;;;;;;;-11.25;72.71;100262.94;1677358;83;21535;-49
2021/12/23 15:39:37;;;;;;;86.05;39.88;;;;;;;-11.32;72.91;100265.53;1695301;83;21680;-51
2021/12/23 15:42:07;;;;;;;105.78;44.60;;;;;;;-11.31;73.13;100265.16;1727598;80;21817;-52
2021/12/23 15:44:37;;;;;;;55.48;25.50;;;;;;;-11.32;73.23;100262.98;1721021;81;21506;-54
2021/12/23 15:47:07;;;;;;;45.92;23.62;;;;;;;-11.37;72.93;100260.22;1724779;81;21519;-51
2021/12/23 15:49:34;;;;;;;80.80;35.63;;;;;;;-11.29;73.15;100253.42;1722951;81;21041;-51
2021/12/23 15:52:02;;;;;;;84.83;37.73;;;;;;;-11.25;73.07;100249.84;1725018;80;21574;-52
2021/12/23 15:54:28;;;;;;;75.60;34.83;;;;;;;-11.22;72.98;100254.23;1726140;80;21973;-49
2021/12/23 15:56:56;;;;;;;82.45;40.43;;;;;;;-11.22;72.63;100247.89;1722813;81;20995;-49
2021/12/23 15:59:23;;;;;;;56.75;27.50;;;;;;;-11.30;72.47;100244.94;1722177;81;21468;-49
2021/12/23 16:01:50;;;;;;;38.20;20.32;;;;;;;-11.32;72.71;100247.76;1729175;81;21011;-49
2021/12/23 16:04:25;;;;;;;36.45;18.85;;;;;;;-11.36;72.66;100240.41;1727307;82;21523;-49
2021/12/23 16:09:31;;;;;;;24.80;16.67;;;;;;;-11.44;72.50;100231.47;1725437;80;20987;-52
2021/12/23 16:11:58;;;;;;;22.85;13.55;;;;;;;-11.52;72.56;100232.73;1724691;81;21503;-52
2021/12/23 16:14:24;;;;;;;19.02;12.15;;;;;;;-11.61;72.85;100229.28;1726523;80;21522;-51
2021/12/23 16:16:53;;;;;;;19.15;11.70;;;;;;;-11.61;72.81;100225.48;1729944;81;21498;-49
2021/12/23 16:19:20;;;;;;;18.65;10.48;;;;;;;-11.60;72.74;100227.61;1723295;81;22083;-48
2021/12/23 16:21:47;;;;;;;14.98;10.28;;;;;;;-11.62;72.84;100231.73;1716033;81;21041;-48
2021/12/23 16:24:14;;;;;;;12.98;8.95;;;;;;;-11.62;72.99;100226.28;1719787;81;21581;-51
2021/12/23 16:26:41;;;;;;;16.00;10.00;;;;;;;-11.65;72.90;100223.57;1715528;82;28495;-49
2021/12/23 16:29:08;;;;;;;17.32;10.25;;;;;;;-11.59;72.97;100220.49;1723135;81;22388;-48
2021/12/23 16:31:36;;;;;;;17.27;9.73;;;;;;;-11.53;72.69;100211.94;1728620;80;21753;-49
2021/12/23 16:34:02;;;;;;;22.55;11.10;;;;;;;-11.51;72.58;100205.28;1708156;83;20985;-48
2021/12/23 16:36:29;;;;;;;24.77;11.45;;;;;;;-11.51;72.39;100204.01;1681034;83;21129;-48
2021/12/23 16:39:01;;;;;;;19.15;10.08;;;;;;;-11.48;72.36;100205.45;1675096;84;21500;-47
2021/12/23 16:41:29;;;;;;;16.85;9.53;;;;;;;-11.40;72.32;100209.67;1686613;83;20968;-48
2021/12/23 16:43:58;;;;;;;20.25;10.08;;;;;;;-11.38;71.84;100200.07;1690315;83;21520;-48
2021/12/23 16:46:26;;;;;;;19.05;10.05;;;;;;;-11.40;71.86;100198.25;1672747;84;21435;-48
2021/12/23 16:48:56;;;;;;;16.95;10.35;;;;;;;-11.47;71.30;100193.63;1677857;83;21534;-48
2021/12/23 16:51:22;;;;;;;19.07;10.55;;;;;;;-11.62;71.01;100191.13;1686812;83;21498;-50
2021/12/23 16:53:51;;;;;;;22.62;11.03;;;;;;;-11.72;71.26;100183.83;1680225;82;21574;-48
2021/12/23 16:57:33;;;;;;;15.80;9.83;;;;;;;-11.76;71.56;100179.84;1679638;84;21789;-49
2021/12/23 16:58:46;;;;;;;18.82;10.72;;;;;;;-11.72;71.61;100178.34;1683096;83;21536;-49
2021/12/23 17:01:15;;;;;;;23.80;10.05;;;;;;;-11.69;71.51;100179.80;1678948;84;21543;-49
2021/12/23 17:03:41;;;;;;;21.68;11.28;;;;;;;-11.63;71.52;100170.38;1683678;84;21601;-49
2021/12/23 17:06:09;;;;;;;18.20;10.80;;;;;;;-11.58;71.27;100176.58;1684662;83;21641;-49
2021/12/23 17:08:37;;;;;;;;;;;;;;;-11.60;71.07;100167.61;1694192;83;21798;-50
2021/12/23 17:11:05;;;;;;;19.48;9.65;;;;;;;-11.58;71.00;100167.70;1673176;84;20136;-49
2021/12/23 17:13:32;;;;;;;20.62;10.70;;;;;;;-11.55;70.73;100157.69;1704647;82;21569;-49
2021/12/23 17:15:58;;;;;;;17.05;9.80;;;;;;;-11.57;70.63;100152.94;1674657;83;21407;-49
2021/12/23 17:18:34;;;;;;;16.80;9.40;;;;;;;-11.55;70.50;100153.48;1674568;83;21462;-49
2021/12/23 17:23:31;;;;;;;18.80;9.93;;;;;;;-11.60;70.04;100145.14;1688932;83;21512;-50
2021/12/23 17:25:59;;;;;;;19.62;12.10;;;;;;;-11.60;70.10;100143.88;1677582;84;21094;-49
2021/12/23 17:28:26;;;;;;;19.73;11.75;;;;;;;-11.61;70.10;100129.45;1684901;83;21432;-50
2021/12/23 17:30:53;;;;;;;20.88;10.82;;;;;;;-11.67;69.77;100127.47;1677940;84;21126;-50
2021/12/23 17:33:20;;;;;;;21.33;11.10;;;;;;;-11.73;69.72;100130.05;1678966;83;21500;-49
2021/12/23 17:35:51;;;;;;;20.48;10.88;;;;;;;-11.77;69.94;100125.20;1691257;82;21576;-49
2021/12/23 17:38:18;;;;;;;20.95;11.25;;;;;;;-11.82;69.65;100131.31;1723409;80;21498;-49
2021/12/23 17:40:45;;;;;;;18.82;11.48;;;;;;;-11.94;69.81;100128.13;1732854;80;21645;-51
2021/12/23 17:43:13;;;;;;;21.00;12.33;;;;;;;-12.04;70.15;100124.63;1739098;81;23425;-50
2021/12/23 17:45:42;;;;;;;25.80;13.05;;;;;;;-12.09;70.50;100122.22;1735926;80;21793;-50
2021/12/23 17:48:10;;;;;;;22.67;12.60;;;;;;;-12.12;70.79;100115.73;1733476;80;21538;-51
2021/12/23 17:50:38;;;;;;;22.40;11.88;;;;;;;-12.21;71.04;100115.69;1729276;80;21447;-48
2021/12/23 17:53:09;;;;;;;27.15;11.50;;;;;;;-12.25;71.06;100113.78;1731900;80;21447;-49
2021/12/23 17:55:36;;;;;;;23.30;11.68;;;;;;;-12.23;71.25;100108.39;1736651;80;21569;-49
2021/12/23 17:58:03;;;;;;;20.95;11.78;;;;;;;-12.24;71.29;100105.40;1738414;80;22030;-49
2021/12/23 18:00:30;;;;;;;;;;;;;;;-12.26;71.39;100108.25;1742879;81;21557;-50
2021/12/23 18:02:57;;;;;;;29.87;13.88;;;;;;;-12.28;71.57;100111.09;1735625;80;27083;-49
2021/12/23 18:05:24;;;;;;;40.08;18.45;;;;;;;-12.23;71.50;100116.41;1740198;80;21538;-49
2021/12/23 18:07:50;;;;;;;;;;;;;;;-12.34;71.58;100112.00;1741484;80;21594;-49
2021/12/23 18:10:18;;;;;;;33.63;14.15;;;;;;;-12.45;71.86;100113.95;1695752;82;21802;-49
2021/12/23 18:12:44;;;;;;;24.05;12.20;;;;;;;-12.49;72.01;100109.88;1732657;80;21510;-48
2021/12/23 18:15:12;;;;;;;23.57;12.23;;;;;;;-12.51;72.14;100105.98;1727717;80;21495;-51
2021/12/23 18:17:40;;;;;;;18.70;11.43;;;;;;;-12.55;72.36;100099.00;1735818;81;21022;-49
2021/12/23 18:20:08;;;;;;;21.77;11.43;;;;;;;-12.52;72.36;100094.12;1736737;80;21638;-48
2021/12/23 18:22:36;;;;;;;24.65;12.47;;;;;;;-12.49;72.24;100095.53;1733085;80;21446;-48
2021/12/23 18:25:04;;;;;;;24.55;13.13;;;;;;;-12.45;72.11;100097.84;1735143;80;21542;-49
2021/12/23 18:27:32;;;;;;;23.50;12.40;;;;;;;-12.41;72.01;100087.98;1708972;80;21562;-49
2021/12/23 18:29:58;;;;;;;26.33;13.50;;;;;;;-12.32;72.00;100082.53;1725206;80;21499;-48
2021/12/23 18:32:25;;;;;;;25.23;14.07;;;;;;;-12.24;71.67;100081.32;1727142;80;21415;-49
2021/12/23 18:34:54;;;;;;;26.15;13.98;;;;;;;-12.16;71.48;100074.99;1733048;81;21551;-49
2021/12/23 18:37:21;;;;;;;22.67;12.53;;;;;;;-12.09;71.18;100076.59;1715785;81;21582;-49
2021/12/23 18:39:49;;;;;;;26.60;12.30;;;;;;;-12.11;70.87;100073.09;1723676;82;21605;-49
2021/12/23 18:42:23;;;;;;;25.45;13.53;;;;;;;-12.13;70.75;100070.48;1718652;81;21467;-51
2021/12/23 18:44:45;;;;;;;24.40;12.95;;;;;;;-12.15;70.53;100067.88;1721366;80;21534;-52
2021/12/23 18:47:12;;;;;;;24.50;12.60;;;;;;;-12.13;70.57;100061.60;1722478;81;21819;-50
2021/12/23 18:49:39;;;;;;;26.27;13.70;;;;;;;-12.06;70.61;100059.88;1719882;81;21633;-50
2021/12/23 18:52:07;;;;;;;23.87;12.75;;;;;;;-12.03;70.14;100054.98;1725442;80;21452;-48
2021/12/23 18:54:34;;;;;;;23.85;12.93;;;;;;;-12.05;69.94;100051.87;1729998;80;21522;-49
2021/12/23 18:57:00;;;;;;;24.45;12.95;;;;;;;-12.05;69.95;100051.50;1723995;81;20962;-50
2021/12/23 18:59:27;;;;;;;25.35;13.40;;;;;;;-12.00;69.99;100055.53;1720297;81;21857;-51
2021/12/23 19:01:59;;;;;;;26.97;12.85;;;;;;;-12.00;69.63;100050.06;1727836;81;21518;-50
2021/12/23 19:07:11;;;;;;;20.80;11.70;;;;;;;-12.14;69.33;100049.73;1721657;80;21574;-49
2021/12/23 19:09:40;;;;;;;20.08;11.08;;;;;;;-12.28;69.25;100046.45;1725382;80;21564;-50
2021/12/23 19:12:07;;;;;;;16.85;10.10;;;;;;;-12.29;69.62;100043.43;1723770;81;21797;-52
2021/12/23 19:14:34;;;;;;;22.17;11.83;;;;;;;-12.27;69.81;100040.98;1718288;80;21558;-51
2021/12/23 19:17:01;;;;;;;20.55;11.03;;;;;;;-12.33;70.03;100037.72;1730714;81;21456;-49
2021/12/23 19:19:27;;;;;;;21.17;12.18;;;;;;;-12.36;70.21;100037.55;1726601;81;21515;-55
2021/12/23 19:21:54;;;;;;;23.25;11.33;;;;;;;-12.31;70.36;100031.48;1727321;80;21638;-53
2021/12/23 19:24:21;;;;;;;21.77;11.00;;;;;;;-12.30;70.26;100025.20;1726529;80;21783;-54
2021/12/23 19:26:47;;;;;;;19.90;10.48;;;;;;;-12.34;70.12;100022.02;1731972;80;21105;-52
2021/12/23 19:29:14;;;;;;;17.67;10.10;;;;;;;-12.33;70.45;100020.39;1722504;81;21439;-57
2021/12/23 19:31:41;;;;;;;17.60;10.48;;;;;;;-12.32;70.44;100014.51;1719432;81;21621;-50
2021/12/23 19:34:07;;;;;;;20.77;11.55;;;;;;;-12.30;70.51;100004.92;1728609;81;20998;-49
2021/12/23 19:36:34;;;;;;;20.00;11.08;;;;;;;-12.28;70.27;100003.74;1734288;80;21792;-54
2021/12/23 19:39:02;;;;;;;18.52;11.57;;;;;;;-12.33;70.28;99997.17;1735927;80;21478;-57
2021/12/23 19:41:29;;;;;;;18.48;10.93;;;;;;;-12.27;70.42;99995.36;1734565;80;21557;-57
2021/12/23 19:43:56;;;;;;;16.75;10.48;;;;;;;-12.20;70.36;100000.84;1744630;81;21159;-50
2021/12/23 19:46:23;;;;;;;18.77;10.43;;;;;;;-12.15;70.17;99990.93;1739220;80;21488;-51
2021/12/23 19:48:49;;;;;;;18.55;11.18;;;;;;;-12.11;69.81;99992.83;1730534;80;21793;-51
2021/12/23 19:51:18;;;;;;;17.55;10.13;;;;;;;-12.13;69.66;99988.48;1725461;81;21415;-48
2021/12/23 19:53:44;;;;;;;20.75;10.53;;;;;;;-12.17;69.54;99981.97;1742397;80;21541;-51
2021/12/23 19:56:11;;;;;;;18.30;11.25;;;;;;;-12.20;69.66;99985.63;1740888;81;21582;-49
2021/12/23 19:58:38;;;;;;;20.43;10.85;;;;;;;-12.24;69.74;99975.23;1740744;80;21534;-49
2021/12/23 20:01:05;;;;;;;17.52;10.55;;;;;;;-12.25;69.72;99977.30;1744091;80;21887;-49
2021/12/23 20:03:31;;;;;;;16.37;10.75;;;;;;;-12.25;69.80;99971.83;1736505;80;21523;-52
2021/12/23 20:05:59;;;;;;;17.82;10.03;;;;;;;-12.32;69.63;99970.16;1740543;80;21568;-49
2021/12/23 20:08:27;;;;;;;17.42;10.38;;;;;;;-12.35;69.59;99967.94;1733371;80;21414;-48
2021/12/23 20:10:54;;;;;;;15.10;9.08;;;;;;;-12.39;69.62;99962.64;1733713;80;21553;-48
2021/12/23 20:13:21;;;;;;;18.65;11.00;;;;;;;-12.40;69.88;99960.47;1694115;83;22059;-54
2021/12/23 20:15:49;;;;;;;16.48;9.73;;;;;;;-12.44;69.63;99958.98;1672546;84;21630;-51
2021/12/23 20:18:15;;;;;;;17.10;9.13;;;;;;;-12.50;69.75;99959.92;1681692;84;21470;-48
2021/12/23 20:20:44;;;;;;;19.10;9.05;;;;;;;-12.54;70.11;99959.74;1675898;83;21027;-49
2021/12/23 20:23:11;;;;;;;16.27;9.78;;;;;;;-12.61;70.18;99956.80;1695091;82;21522;-48
2021/12/23 20:25:39;;;;;;;15.80;9.13;;;;;;;-12.66;70.35;99950.60;1673157;84;21812;-49
2021/12/23 20:28:07;;;;;;;17.15;10.08;;;;;;;-12.65;70.53;99940.96;1682003;83;21575;-49
2021/12/23 20:30:35;;;;;;;16.75;9.55;;;;;;;-12.67;70.58;99942.55;1675626;83;21633;-48
2021/12/23 20:33:02;;;;;;;14.95;9.70;;;;;;;-12.69;70.55;99941.56;1670464;83;21518;-50
2021/12/23 20:35:28;;;;;;;17.62;9.73;;;;;;;-12.70;70.88;99933.09;1718661;81;21620;-50
2021/12/23 20:37:55;;;;;;;16.12;8.50;;;;;;;-12.68;71.05;99928.98;1719604;81;21752;-49
2021/12/23 20:40:22;;;;;;;17.62;9.33;;;;;;;-12.60;71.11;99925.22;1718952;81;21577;-49
2021/12/23 20:42:49;;;;;;;19.32;9.80;;;;;;;-12.56;71.19;99927.13;1721860;81;21637;-48
2021/12/23 20:45:17;;;;;;;13.43;9.00;;;;;;;-12.49;71.38;99910.57;1723092;81;21058;-51
2021/12/23 20:47:44;;;;;;;15.50;9.33;;;;;;;-12.38;71.39;99905.67;1687016;82;21632;-54
2021/12/23 20:50:21;;;;;;;19.20;10.60;;;;;;;-12.27;71.16;99908.78;1682449;82;22055;-51
2021/12/23 20:52:48;;;;;;;16.50;9.98;;;;;;;-12.22;71.20;99892.16;1724058;81;21688;-53
2021/12/23 20:55:32;;;;;;;18.67;10.32;;;;;;;-12.16;71.29;99901.75;1720589;82;21452;-51
2021/12/23 20:57:45;;;;;;;20.32;9.23;;;;;;;-12.10;71.28;99902.45;1721619;81;21511;-51
2021/12/23 21:00:13;;;;;;;15.53;10.40;;;;;;;-12.03;71.31;99894.37;1711092;81;21440;-49
2021/12/23 21:02:39;;;;;;;20.72;10.25;;;;;;;-11.96;71.45;99892.23;1725427;81;21763;-51
2021/12/23 21:05:08;;;;;;;16.60;9.35;;;;;;;-11.96;71.15;99889.70;1720455;80;21689;-52
2021/12/23 21:07:36;;;;;;;18.35;9.58;;;;;;;-11.98;71.31;99883.67;1728402;79;21517;-51
2021/12/23 21:10:06;;;;;;;18.70;10.28;;;;;;;-11.97;71.37;99884.54;1658428;83;21611;-51
2021/12/23 21:12:35;;;;;;;18.80;10.60;;;;;;;-12.00;71.27;99886.50;1727213;80;21091;-49
2021/12/23 21:15:01;;;;;;;18.37;10.00;;;;;;;-11.98;71.42;99880.25;1719074;80;21637;-48
2021/12/23 21:17:29;;;;;;;17.92;9.90;;;;;;;-11.95;71.40;99885.08;1726099;81;20995;-53
2021/12/23 21:19:55;;;;;;;23.67;10.60;;;;;;;-11.92;71.22;99879.69;1680030;82;21422;-51
2021/12/23 21:22:22;;;;;;;18.42;10.20;;;;;;;-11.90;71.35;99874.30;1725832;80;22046;-51
2021/12/23 21:24:49;;;;;;;13.22;7.30;;;;;;;-11.88;71.21;99876.47;1724997;80;21518;-53
2021/12/23 21:27:15;;;;;;;17.10;10.13;;;;;;;-11.87;71.25;99860.06;1724823;80;21425;-52
2021/12/23 21:29:42;;;;;;;21.37;11.15;;;;;;;-11.86;71.21;99859.29;1719704;80;21564;-51
2021/12/23 21:32:09;;;;;;;20.55;10.20;;;;;;;-11.89;71.12;99859.56;1717435;80;21581;-51
